Lamar, Oklahoma
Current Conditions -  °F | °C
As of 2:53 AM on Thursday 27 Nov 2014 (Local Time) from KMLC Reporting Station
Scattered Clouds Scattered Clouds  
Wind Chill: 30°   Ceiling: Unl
Heat Index: 35°   Visibility: 10mi
Dew Point: 26°   Wind: 6mph
Humidity: 70%   Direction: 340°NNW
Pressure: 30.48"   Gusts: NA
Location:  35.1°N, 96.13°W
Report Text: KMLC 270853Z AUTO 34005KT 10SM FEW080 FEW100 SCT120 02/M03 A3048 RMK AO2 SLP322 T00171033 53023
Loading
Personal Weather Stations






























Interactive Weather Map New forecast layout! Learn more

10-Day Weather Forecast

Advertisements
Track Severe Weather on mobile